createdAt,value
2023-04-15T00:02:20.989Z,-0.10
2023-04-15T00:04:49.716Z,-0.10
2023-04-15T00:07:18.038Z,-0.20
2023-04-15T00:09:46.108Z,-0.30
2023-04-15T00:12:13.929Z,-0.30
2023-04-15T00:14:43.538Z,-0.40
2023-04-15T00:17:11.354Z,-0.40
2023-04-15T00:19:39.211Z,-0.40
2023-04-15T00:22:07.106Z,-0.40
2023-04-15T00:24:34.960Z,-0.40
2023-04-15T00:27:03.594Z,-0.30
2023-04-15T00:29:31.511Z,-0.30
2023-04-15T00:32:00.654Z,-0.40
2023-04-15T00:34:28.889Z,-0.40
2023-04-15T00:36:56.731Z,-0.50
2023-04-15T00:39:24.491Z,-0.60
2023-04-15T00:41:52.732Z,-0.60
2023-04-15T00:44:20.532Z,-0.60
2023-04-15T00:46:52.992Z,-0.50
2023-04-15T00:49:22.530Z,-0.50
2023-04-15T00:51:50.577Z,-0.60
2023-04-15T00:54:18.521Z,-0.70
2023-04-15T00:56:46.742Z,-0.80
2023-04-15T00:59:16.765Z,-0.80
2023-04-15T01:01:46.299Z,-0.80
2023-04-15T01:04:15.206Z,-0.80
2023-04-15T01:06:44.435Z,-0.80
2023-04-15T01:09:12.819Z,-0.80
2023-04-15T01:11:40.901Z,-0.80
2023-04-15T01:14:09.641Z,-0.80
2023-04-15T01:16:39.644Z,-0.90
2023-04-15T01:19:09.573Z,-0.80
2023-04-15T01:21:38.083Z,-0.80
2023-04-15T01:24:10.700Z,-0.80
2023-04-15T01:26:40.987Z,-0.70
2023-04-15T01:29:08.863Z,-0.70
2023-04-15T01:31:37.562Z,-0.60
2023-04-15T01:34:06.069Z,-0.60
2023-04-15T01:36:33.961Z,-0.70
2023-04-15T01:39:01.993Z,-0.80
2023-04-15T01:41:30.267Z,-0.80
2023-04-15T01:43:59.464Z,-0.70
2023-04-15T01:46:27.612Z,-0.80
2023-04-15T01:48:55.728Z,-0.90
2023-04-15T01:51:23.766Z,-0.90
2023-04-15T01:53:52.298Z,-1.00
2023-04-15T01:56:20.249Z,-1.10
2023-04-15T01:58:48.236Z,-1.20
2023-04-15T02:01:19.671Z,-1.20
2023-04-15T02:03:48.289Z,-1.10
2023-04-15T02:06:16.288Z,-1.10
2023-04-15T02:08:44.119Z,-1.10
2023-04-15T02:11:12.002Z,-1.10
2023-04-15T02:13:39.807Z,-1.20
2023-04-15T02:16:18.564Z,-1.20
2023-04-15T02:18:46.937Z,-1.20
2023-04-15T02:21:14.776Z,-1.20
2023-04-15T02:23:44.040Z,-1.30
2023-04-15T02:26:11.862Z,-1.30
2023-04-15T02:28:39.674Z,-1.40
2023-04-15T02:31:08.140Z,-1.40
2023-04-15T02:33:37.877Z,-1.30
2023-04-15T02:36:06.423Z,-1.30
2023-04-15T02:38:34.244Z,-1.40
2023-04-15T02:41:02.429Z,-1.40
2023-04-15T02:43:30.527Z,-1.40
2023-04-15T02:45:58.412Z,-1.20
2023-04-15T02:48:26.259Z,-1.10
2023-04-15T02:50:55.552Z,-1.10
2023-04-15T02:53:23.618Z,-1.30
2023-04-15T02:55:51.606Z,-1.40
2023-04-15T02:58:19.400Z,-1.50
2023-04-15T03:00:47.160Z,-1.50
2023-04-15T03:03:15.481Z,-1.70
2023-04-15T03:05:43.521Z,-1.70
2023-04-15T03:08:12.756Z,-1.80
2023-04-15T03:10:40.516Z,-1.70
2023-04-15T03:13:08.734Z,-1.80
2023-04-15T03:15:36.625Z,-1.80
2023-04-15T03:18:04.585Z,-1.80
2023-04-15T03:20:32.434Z,-1.80
2023-04-15T03:23:00.452Z,-1.90
2023-04-15T03:25:29.669Z,-1.90
2023-04-15T03:27:58.296Z,-1.90
2023-04-15T03:30:26.204Z,-1.90
2023-04-15T03:32:54.129Z,-1.80
2023-04-15T03:35:21.955Z,-1.80
2023-04-15T03:37:50.075Z,-1.70
2023-04-15T03:40:17.982Z,-1.70
2023-04-15T03:42:47.130Z,-1.80
2023-04-15T03:45:14.952Z,-1.80
2023-04-15T03:47:42.812Z,-1.90
2023-04-15T03:50:15.203Z,-1.90
2023-04-15T03:52:43.005Z,-1.90
2023-04-15T03:55:11.033Z,-2.00
2023-04-15T03:57:39.751Z,-2.00
2023-04-15T04:00:10.556Z,-2.00
2023-04-15T04:02:38.884Z,-1.70
2023-04-15T04:05:07.214Z,-1.60
2023-04-15T04:07:35.003Z,-1.60
2023-04-15T04:10:03.738Z,-1.70
2023-04-15T04:12:31.536Z,-1.90
2023-04-15T04:14:59.321Z,-1.90
2023-04-15T04:17:28.503Z,-2.00
2023-04-15T04:19:56.373Z,-2.10
2023-04-15T04:22:24.913Z,-2.20
2023-04-15T04:24:52.760Z,-2.30
2023-04-15T04:27:20.715Z,-2.40
2023-04-15T04:29:49.987Z,-2.30
2023-04-15T04:32:17.903Z,-2.30
2023-04-15T04:34:47.196Z,-2.30
2023-04-15T04:37:15.385Z,-2.20
2023-04-15T04:39:43.211Z,-2.20
2023-04-15T04:42:11.103Z,-2.10
2023-04-15T04:44:39.144Z,-2.10
2023-04-15T04:47:07.554Z,-2.10
2023-04-15T04:49:35.550Z,-2.10
2023-04-15T04:52:04.722Z,-2.10
2023-04-15T04:54:32.543Z,-1.90
2023-04-15T04:57:00.805Z,-1.60
2023-04-15T04:59:28.640Z,-1.50
2023-04-15T05:01:56.485Z,-1.50
2023-04-15T05:04:24.297Z,-1.30
2023-04-15T05:06:52.085Z,-1.10
2023-04-15T05:09:21.264Z,-0.90
2023-04-15T05:11:49.096Z,-0.80
2023-04-15T05:14:17.263Z,-0.70
2023-04-15T05:16:45.088Z,-0.60
2023-04-15T05:19:12.889Z,-0.30
2023-04-15T05:21:40.838Z,0.00
2023-04-15T05:24:08.662Z,0.70
2023-04-15T05:26:37.786Z,1.30
2023-04-15T05:29:05.734Z,1.70
2023-04-15T05:31:33.645Z,2.00
2023-04-15T05:34:01.580Z,2.20
2023-04-15T05:36:29.652Z,2.10
2023-04-15T05:38:57.447Z,2.40
2023-04-15T05:41:25.405Z,2.80
2023-04-15T05:43:54.524Z,2.80
2023-04-15T05:46:22.609Z,2.90
2023-04-15T05:48:50.683Z,2.80
2023-04-15T05:51:18.466Z,2.90
2023-04-15T05:53:46.941Z,3.10
2023-04-15T05:56:14.739Z,3.40
2023-04-15T05:58:42.511Z,3.40
2023-04-15T06:01:11.720Z,3.10
2023-04-15T06:03:42.630Z,3.00
2023-04-15T06:06:10.506Z,3.20
2023-04-15T06:08:38.318Z,3.40
2023-04-15T06:11:06.515Z,4.20
2023-04-15T06:13:34.917Z,5.00
2023-04-15T06:16:02.721Z,5.50
2023-04-15T06:18:31.861Z,5.80
2023-04-15T06:20:59.891Z,5.20
2023-04-15T06:23:28.124Z,4.70
2023-04-15T06:25:56.023Z,4.10
2023-04-15T06:28:23.804Z,4.30
2023-04-15T06:30:51.571Z,4.70
2023-04-15T06:33:19.396Z,5.40
2023-04-15T06:35:49.691Z,6.00
2023-04-15T06:38:17.580Z,6.40
2023-04-15T06:40:45.501Z,6.50
2023-04-15T06:43:13.368Z,6.10
2023-04-15T06:45:41.234Z,5.50
2023-04-15T06:48:09.010Z,5.70
2023-04-15T06:50:36.931Z,6.00
2023-04-15T06:53:06.610Z,6.30
2023-04-15T06:55:34.442Z,6.50
2023-04-15T06:58:02.249Z,6.80
2023-04-15T07:00:30.568Z,6.90
2023-04-15T07:02:58.416Z,6.90
2023-04-15T07:05:26.425Z,7.20
2023-04-15T07:07:54.208Z,7.40
2023-04-15T07:10:25.561Z,7.80
2023-04-15T07:12:53.542Z,8.10
2023-04-15T07:15:22.224Z,8.40
2023-04-15T07:17:50.042Z,8.50
2023-04-15T07:20:18.052Z,8.20
2023-04-15T07:22:45.906Z,7.90
2023-04-15T07:25:13.867Z,8.10
2023-04-15T07:27:43.002Z,8.60
2023-04-15T07:30:12.541Z,8.60
2023-04-15T07:32:40.567Z,8.50
2023-04-15T07:35:09.748Z,8.70
2023-04-15T07:37:37.606Z,8.60
2023-04-15T07:40:07.249Z,8.60
2023-04-15T07:42:35.490Z,8.40
2023-04-15T07:45:05.319Z,8.30
2023-04-15T07:47:33.147Z,8.00
2023-04-15T07:50:02.108Z,7.40
2023-04-15T07:52:30.059Z,7.70
2023-04-15T07:54:57.872Z,8.10
2023-04-15T07:57:25.994Z,8.30
2023-04-15T07:59:53.768Z,8.10
2023-04-15T08:02:23.605Z,8.10
2023-04-15T08:04:51.710Z,8.50
2023-04-15T08:07:19.771Z,8.70
2023-04-15T08:09:48.204Z,8.20
2023-04-15T08:12:16.217Z,8.50
2023-04-15T08:14:44.073Z,8.60
2023-04-15T08:17:12.046Z,8.60
2023-04-15T08:19:42.396Z,8.90
2023-04-15T08:22:17.386Z,9.40
2023-04-15T08:24:45.981Z,9.50
2023-04-15T08:27:13.913Z,9.30
2023-04-15T08:29:41.696Z,9.40
2023-04-15T08:32:10.615Z,9.60
2023-04-15T08:34:38.576Z,9.20
2023-04-15T08:37:08.208Z,9.80
2023-04-15T08:39:36.070Z,10.20
2023-04-15T08:42:07.156Z,10.40
2023-04-15T08:44:36.868Z,10.90
2023-04-15T08:47:08.780Z,10.40
2023-04-15T08:49:40.096Z,10.60
2023-04-15T08:52:10.303Z,10.90
2023-04-15T08:54:39.000Z,11.10
2023-04-15T08:57:07.965Z,11.20
2023-04-15T08:59:36.448Z,11.50
2023-04-15T09:02:05.520Z,11.80
2023-04-15T09:04:33.843Z,11.00
2023-04-15T09:07:02.127Z,11.00
2023-04-15T09:09:31.292Z,11.10
2023-04-15T09:11:59.060Z,11.10
2023-04-15T09:14:27.009Z,11.50
2023-04-15T09:16:58.437Z,11.80
2023-04-15T09:19:27.154Z,11.40
2023-04-15T09:21:58.629Z,11.70
2023-04-15T09:24:35.006Z,11.80
2023-04-15T09:27:04.467Z,12.00
2023-04-15T09:29:32.433Z,11.80
2023-04-15T09:32:10.870Z,12.10
2023-04-15T09:34:38.758Z,12.30
2023-04-15T09:37:08.024Z,12.40
2023-04-15T09:39:51.931Z,11.90
2023-04-15T09:42:24.520Z,11.80
2023-04-15T09:44:52.963Z,12.00
2023-04-15T09:47:31.438Z,12.00
2023-04-15T09:50:00.459Z,12.00
2023-04-15T09:52:28.810Z,12.00
2023-04-15T09:54:58.809Z,12.10
2023-04-15T09:57:35.748Z,11.80
2023-04-15T10:00:05.162Z,11.80
2023-04-15T10:02:33.482Z,11.90
2023-04-15T10:05:02.445Z,11.90
2023-04-15T10:07:30.809Z,12.10
2023-04-15T10:10:02.385Z,12.20
2023-04-15T10:12:33.493Z,12.30
2023-04-15T10:15:05.968Z,12.70
2023-04-15T10:17:35.539Z,13.00
2023-04-15T10:20:05.138Z,13.20
2023-04-15T10:22:33.743Z,13.30
2023-04-15T10:25:04.257Z,12.70
2023-04-15T10:27:34.489Z,13.00
2023-04-15T10:30:03.747Z,13.30
2023-04-15T10:32:32.546Z,13.20
2023-04-15T10:35:00.990Z,13.10
2023-04-15T10:37:36.030Z,12.70
2023-04-15T10:40:25.532Z,12.50
2023-04-15T10:42:55.388Z,12.70
2023-04-15T10:45:26.721Z,13.20
2023-04-15T10:47:57.325Z,13.20
2023-04-15T10:50:27.748Z,13.10
2023-04-15T10:52:56.748Z,12.90
2023-04-15T10:55:25.824Z,12.50
2023-04-15T10:58:00.821Z,12.20
2023-04-15T11:00:31.065Z,12.40
2023-04-15T11:03:00.208Z,12.20
2023-04-15T11:05:53.002Z,12.60
2023-04-15T11:08:21.719Z,12.10
2023-04-15T11:10:56.541Z,12.20
2023-04-15T11:13:34.371Z,12.20
2023-04-15T11:16:03.399Z,12.10
2023-04-15T11:18:33.601Z,12.10
2023-04-15T11:21:04.522Z,12.30
2023-04-15T11:23:38.202Z,12.90
2023-04-15T11:26:09.547Z,12.30
2023-04-15T11:28:40.902Z,12.40
2023-04-15T11:31:11.838Z,12.50
2023-04-15T11:33:47.247Z,12.60
2023-04-15T11:36:15.246Z,12.80
2023-04-15T11:38:47.964Z,12.70
2023-04-15T11:41:16.646Z,12.80
2023-04-15T11:43:45.799Z,13.10
2023-04-15T11:46:13.628Z,12.40
2023-04-15T11:48:44.368Z,12.70
2023-04-15T11:51:13.326Z,13.20
2023-04-15T11:53:45.890Z,13.40
2023-04-15T11:56:22.024Z,12.80
2023-04-15T11:58:54.323Z,12.80
2023-04-15T12:01:22.551Z,12.90
2023-04-15T12:03:50.832Z,12.60
2023-04-15T12:06:20.556Z,12.30
2023-04-15T12:08:59.456Z,12.80
2023-04-15T12:11:32.658Z,13.00
2023-04-15T12:14:07.484Z,13.10
2023-04-15T12:16:48.041Z,13.10
2023-04-15T12:19:19.509Z,12.90
2023-04-15T12:21:48.859Z,13.00
2023-04-15T12:24:16.776Z,12.90
2023-04-15T12:26:46.575Z,12.60
2023-04-15T12:29:17.607Z,12.50
2023-04-15T12:31:51.377Z,12.40
2023-04-15T12:34:20.949Z,12.60
2023-04-15T12:36:48.804Z,12.40
2023-04-15T12:39:16.649Z,12.30
2023-04-15T12:41:44.570Z,12.60
2023-04-15T12:44:12.712Z,12.90
2023-04-15T12:46:41.981Z,12.40
2023-04-15T12:49:10.574Z,12.80
2023-04-15T12:51:38.465Z,12.60
2023-04-15T12:54:06.780Z,12.60
2023-04-15T12:56:34.709Z,12.50
2023-04-15T12:59:02.676Z,12.70
2023-04-15T13:01:30.567Z,12.90
2023-04-15T13:03:59.789Z,13.20
2023-04-15T13:06:29.161Z,13.10
2023-04-15T13:08:58.831Z,12.90
2023-04-15T13:11:27.218Z,12.40
2023-04-15T13:13:56.043Z,12.10
2023-04-15T13:16:24.818Z,12.10
2023-04-15T13:18:52.736Z,12.30
2023-04-15T13:21:21.902Z,12.50
2023-04-15T13:23:50.119Z,12.60
2023-04-15T13:26:19.136Z,12.80
2023-04-15T13:28:47.297Z,12.80
2023-04-15T13:31:15.184Z,12.60
2023-04-15T13:33:43.040Z,13.10
2023-04-15T13:36:10.849Z,12.90
2023-04-15T13:38:40.003Z,12.80
2023-04-15T13:41:07.762Z,12.50
2023-04-15T13:43:35.695Z,12.20
2023-04-15T13:46:03.897Z,12.10
2023-04-15T13:48:31.762Z,11.80
2023-04-15T13:50:59.668Z,11.70
2023-04-15T13:53:38.428Z,11.80
2023-04-15T13:56:09.588Z,12.00
2023-04-15T13:58:37.832Z,12.10
2023-04-15T14:01:07.444Z,12.20
2023-04-15T14:03:37.100Z,12.40
2023-04-15T14:06:06.190Z,12.50
2023-04-15T14:08:34.217Z,12.40
2023-04-15T14:11:02.271Z,12.00
2023-04-15T14:13:31.422Z,12.00
2023-04-15T14:15:59.284Z,12.10
2023-04-15T14:18:27.279Z,12.30
2023-04-15T14:20:55.144Z,12.10
2023-04-15T14:23:22.999Z,12.20
2023-04-15T14:25:51.692Z,12.20
2023-04-15T14:28:19.519Z,12.50
2023-04-15T14:30:48.849Z,12.20
2023-04-15T14:33:17.345Z,12.30
2023-04-15T14:35:45.294Z,11.90
2023-04-15T14:38:13.138Z,11.80
2023-04-15T14:40:42.585Z,11.80
2023-04-15T14:43:10.503Z,11.90
2023-04-15T14:45:41.912Z,11.50
2023-04-15T14:48:13.175Z,11.50
2023-04-15T14:50:41.488Z,11.30
2023-04-15T14:53:09.311Z,11.10
2023-04-15T14:55:37.136Z,10.90
2023-04-15T14:58:04.979Z,11.00
2023-04-15T15:00:32.864Z,11.00
2023-04-15T15:03:01.710Z,11.10
2023-04-15T15:05:31.269Z,11.30
2023-04-15T15:07:59.202Z,11.50
2023-04-15T15:10:32.872Z,11.40
2023-04-15T15:13:14.767Z,11.20
2023-04-15T15:15:42.988Z,11.10
2023-04-15T15:18:11.549Z,11.00
2023-04-15T15:20:40.931Z,10.80
2023-04-15T15:23:08.727Z,10.50
2023-04-15T15:25:36.572Z,10.40
2023-04-15T15:28:04.459Z,10.30
2023-04-15T15:30:32.296Z,10.20
2023-04-15T15:33:00.255Z,10.20
2023-04-15T15:35:28.133Z,10.20
2023-04-15T15:37:57.283Z,10.20
2023-04-15T15:40:25.171Z,10.10
2023-04-15T15:42:53.798Z,10.20
2023-04-15T15:45:21.732Z,10.20
2023-04-15T15:47:49.711Z,10.20
2023-04-15T15:50:17.720Z,10.10
2023-04-15T15:52:45.808Z,10.00
2023-04-15T15:55:14.996Z,10.00
2023-04-15T15:57:42.801Z,10.00
2023-04-15T16:00:12.885Z,10.00
2023-04-15T16:05:12.699Z,10.00
2023-04-15T16:07:40.503Z,9.90
2023-04-15T16:10:09.736Z,9.90
2023-04-15T16:12:38.983Z,9.80
2023-04-15T16:15:08.232Z,9.80
2023-04-15T16:17:36.123Z,9.80
2023-04-15T16:20:05.717Z,9.80
2023-04-15T16:22:34.244Z,9.90
2023-04-15T16:25:02.705Z,9.90
2023-04-15T16:27:30.509Z,9.90
2023-04-15T16:29:59.631Z,9.90
2023-04-15T16:32:27.621Z,9.80
2023-04-15T16:34:55.493Z,9.80
2023-04-15T16:37:23.690Z,9.90
2023-04-15T16:39:51.528Z,9.70
2023-04-15T16:42:19.350Z,9.80
2023-04-15T16:44:47.135Z,9.70
2023-04-15T16:47:16.499Z,9.70
2023-04-15T16:49:44.360Z,9.60
2023-04-15T16:52:12.197Z,9.50
2023-04-15T16:54:41.420Z,9.30
2023-04-15T16:57:09.608Z,9.40
2023-04-15T16:59:37.606Z,9.40
2023-04-15T17:02:05.486Z,9.40
2023-04-15T17:04:34.940Z,9.30
2023-04-15T17:07:02.962Z,9.30
2023-04-15T17:09:30.762Z,9.20
2023-04-15T17:11:58.640Z,9.30
2023-04-15T17:14:26.449Z,9.20
2023-04-15T17:16:54.271Z,9.10
2023-04-15T17:19:22.215Z,9.00
2023-04-15T17:21:54.253Z,9.00
2023-04-15T17:24:22.709Z,9.00
2023-04-15T17:26:50.525Z,9.00
2023-04-15T17:29:18.324Z,8.90
2023-04-15T17:31:46.139Z,8.80
2023-04-15T17:34:15.909Z,8.70
2023-04-15T17:36:44.088Z,8.70
2023-04-15T17:39:14.055Z,8.60
2023-04-15T17:41:41.912Z,8.40
2023-04-15T17:44:09.775Z,8.30
2023-04-15T17:46:37.689Z,8.30
2023-04-15T17:49:06.619Z,8.20
2023-04-15T17:51:34.629Z,8.00
2023-04-15T17:54:02.586Z,7.90
2023-04-15T17:56:31.883Z,7.80
2023-04-15T17:59:00.500Z,7.60
2023-04-15T18:01:28.339Z,7.60
2023-04-15T18:03:56.515Z,7.60
2023-04-15T18:06:25.060Z,7.60
2023-04-15T18:08:52.990Z,7.60
2023-04-15T18:11:21.145Z,7.50
2023-04-15T18:13:50.318Z,7.40
2023-04-15T18:16:18.223Z,7.30
2023-04-15T18:18:46.074Z,7.20
2023-04-15T18:21:14.065Z,7.20
2023-04-15T18:23:42.265Z,7.10
2023-04-15T18:26:10.202Z,6.90
2023-04-15T18:28:39.808Z,6.80
2023-04-15T18:31:09.126Z,6.80
2023-04-15T18:33:36.988Z,6.70
2023-04-15T18:36:05.066Z,6.70
2023-04-15T18:38:32.885Z,6.60
2023-04-15T18:41:00.784Z,6.60
2023-04-15T18:43:28.610Z,6.50
2023-04-15T18:45:56.554Z,6.50
2023-04-15T18:48:26.888Z,6.40
2023-04-15T18:50:54.861Z,6.30
2023-04-15T18:53:22.720Z,6.10
2023-04-15T18:55:50.528Z,6.10
2023-04-15T18:58:18.452Z,6.00
2023-04-15T19:00:46.348Z,6.10
2023-04-15T19:03:14.719Z,6.10
2023-04-15T19:05:44.423Z,6.20
2023-04-15T19:08:12.417Z,6.20
2023-04-15T19:10:40.332Z,6.10
2023-04-15T19:13:08.171Z,6.10
2023-04-15T19:15:35.971Z,6.10
2023-04-15T19:18:05.348Z,6.10
2023-04-15T19:20:35.711Z,6.00
2023-04-15T19:23:07.370Z,6.10
2023-04-15T19:25:35.348Z,6.00
2023-04-15T19:28:03.206Z,6.00
2023-04-15T19:30:32.368Z,6.00
2023-04-15T19:33:00.307Z,6.00
2023-04-15T19:35:28.270Z,5.90
2023-04-15T19:37:56.082Z,5.90
2023-04-15T19:40:25.524Z,5.90
2023-04-15T19:42:53.314Z,5.90
2023-04-15T19:45:21.122Z,5.80
2023-04-15T19:47:49.070Z,5.80
2023-04-15T19:50:17.086Z,5.80
2023-04-15T19:52:44.858Z,5.80
2023-04-15T19:55:12.698Z,5.70
2023-04-15T19:57:41.908Z,5.70
2023-04-15T20:00:10.894Z,5.60
2023-04-15T20:02:38.874Z,5.60
2023-04-15T20:05:09.745Z,5.70
2023-04-15T20:07:37.940Z,5.60
2023-04-15T20:10:09.587Z,5.60
2023-04-15T20:12:49.152Z,5.60
2023-04-15T20:15:20.854Z,5.60
2023-04-15T20:17:48.677Z,5.60
2023-04-15T20:20:17.092Z,5.60
2023-04-15T20:22:44.906Z,5.60
2023-04-15T20:25:12.760Z,5.60
2023-04-15T20:27:41.920Z,5.60
2023-04-15T20:30:10.967Z,5.60
2023-04-15T20:32:38.927Z,5.60
2023-04-15T20:35:07.845Z,5.60
2023-04-15T20:37:36.302Z,5.50
2023-04-15T20:40:04.417Z,5.50
2023-04-15T20:42:34.277Z,5.50
2023-04-15T20:45:03.898Z,5.50
2023-04-15T20:47:31.754Z,5.50
2023-04-15T20:49:59.695Z,5.40
2023-04-15T20:52:27.540Z,5.40
2023-04-15T20:54:55.644Z,5.40
2023-04-15T20:57:24.579Z,5.30
2023-04-15T20:59:52.417Z,5.30
2023-04-15T21:02:23.107Z,5.40
2023-04-15T21:04:51.163Z,5.30
2023-04-15T21:07:18.962Z,5.30
2023-04-15T21:09:47.289Z,5.30
2023-04-15T21:12:15.113Z,5.40
2023-04-15T21:14:42.909Z,5.40
2023-04-15T21:17:11.530Z,5.30
2023-04-15T21:19:41.262Z,5.30
2023-04-15T21:22:09.108Z,5.30
2023-04-15T21:24:36.894Z,5.30
2023-04-15T21:27:05.051Z,5.30
2023-04-15T21:29:32.899Z,5.20
2023-04-15T21:32:00.969Z,5.20
2023-04-15T21:34:29.026Z,5.20
2023-04-15T21:36:58.185Z,5.20
2023-04-15T21:39:26.020Z,5.20
2023-04-15T21:41:53.878Z,5.20
2023-04-15T21:44:21.717Z,5.20
2023-04-15T21:46:49.497Z,5.20
2023-04-15T21:49:17.292Z,5.20
2023-04-15T21:51:46.374Z,5.20
2023-04-15T21:54:15.510Z,5.20
2023-04-15T21:56:43.617Z,5.20
2023-04-15T21:59:11.380Z,5.20
2023-04-15T22:01:39.270Z,5.20
2023-04-15T22:04:07.544Z,5.10
2023-04-15T22:06:35.505Z,5.10
2023-04-15T22:09:03.549Z,5.10
2023-04-15T22:11:32.868Z,5.10
2023-04-15T22:14:00.700Z,5.00
2023-04-15T22:16:28.867Z,5.10
2023-04-15T22:18:56.842Z,5.00
2023-04-15T22:21:24.901Z,5.00
2023-04-15T22:23:53.122Z,5.00
2023-04-15T22:26:42.262Z,5.00
2023-04-15T22:29:10.634Z,5.10
2023-04-15T22:31:38.485Z,5.00
2023-04-15T22:34:06.447Z,5.00
2023-04-15T22:36:34.370Z,5.00
2023-04-15T22:39:02.187Z,5.00
2023-04-15T22:41:30.139Z,5.00
2023-04-15T22:43:59.361Z,5.00
2023-04-15T22:46:27.186Z,5.00
2023-04-15T22:48:55.081Z,5.00
2023-04-15T22:51:23.866Z,5.00
2023-04-15T22:53:51.802Z,5.00
2023-04-15T22:56:20.743Z,5.00
2023-04-15T22:58:48.967Z,5.00
2023-04-15T23:01:18.728Z,5.00
2023-04-15T23:03:57.012Z,5.00
2023-04-15T23:06:31.882Z,5.00
2023-04-15T23:08:59.669Z,5.00
2023-04-15T23:11:27.445Z,5.00
2023-04-15T23:13:55.242Z,5.10
2023-04-15T23:16:24.443Z,5.00
2023-04-15T23:18:52.269Z,5.10
2023-04-15T23:21:20.034Z,5.00
2023-04-15T23:23:47.857Z,5.00
2023-04-15T23:26:15.652Z,5.10
2023-04-15T23:28:43.428Z,5.00
2023-04-15T23:31:11.667Z,5.00
2023-04-15T23:33:40.868Z,5.00
2023-04-15T23:36:08.963Z,5.00
2023-04-15T23:38:36.870Z,5.00
2023-04-15T23:41:04.700Z,5.00
2023-04-15T23:43:32.544Z,5.00
2023-04-15T23:46:00.350Z,5.00
2023-04-15T23:48:30.048Z,5.00
2023-04-15T23:50:59.197Z,5.00
2023-04-15T23:53:27.023Z,5.00
2023-04-15T23:55:54.839Z,5.00
2023-04-15T23:58:22.658Z,5.00
